createdAt,value
2022-12-25T00:00:20.686Z,101373.72
2022-12-25T00:00:52.758Z,101382.53
2022-12-25T00:01:25.578Z,101379.22
2022-12-25T00:01:57.250Z,101378.91
2022-12-25T00:02:29.823Z,101379.56
2022-12-25T00:03:02.946Z,101382.91
2022-12-25T00:03:34.803Z,101381.88
2022-12-25T00:04:06.393Z,101379.75
2022-12-25T00:04:38.160Z,101380.06
2022-12-25T00:05:09.715Z,101385.00
2022-12-25T00:05:41.480Z,101378.59
2022-12-25T00:06:13.455Z,101377.59
2022-12-25T00:06:45.725Z,101371.31
2022-12-25T00:07:17.350Z,101372.00
2022-12-25T00:07:49.018Z,101373.31
2022-12-25T00:08:20.521Z,101368.53
2022-12-25T00:08:52.124Z,101366.41
2022-12-25T00:09:23.617Z,101366.06
2022-12-25T00:09:55.194Z,101365.09
2022-12-25T00:10:26.707Z,101367.09
2022-12-25T00:11:03.149Z,101366.13
2022-12-25T00:11:34.860Z,101362.00
2022-12-25T00:12:06.414Z,101367.75
2022-12-25T00:12:38.035Z,101362.50
2022-12-25T00:13:09.629Z,101361.84
2022-12-25T00:13:41.962Z,101359.91
2022-12-25T00:14:13.776Z,101357.09
2022-12-25T00:14:45.344Z,101357.59
2022-12-25T00:15:16.949Z,101357.09
2022-12-25T00:15:48.752Z,101364.53
2022-12-25T00:16:23.269Z,101352.66
2022-12-25T00:16:54.944Z,101357.75
2022-12-25T00:17:26.549Z,101352.16
2022-12-25T00:17:58.093Z,101357.94
2022-12-25T00:18:29.593Z,101364.34
2022-12-25T00:19:01.295Z,101346.06
2022-12-25T00:19:32.958Z,101352.66
2022-12-25T00:20:06.129Z,101353.31
2022-12-25T00:20:37.639Z,101356.94
2022-12-25T00:21:10.852Z,101357.44
2022-12-25T00:21:42.362Z,101348.69
2022-12-25T00:22:13.905Z,101352.66
2022-12-25T00:22:45.420Z,101349.00
2022-12-25T00:23:16.955Z,101352.34
2022-12-25T00:23:52.954Z,101351.97
2022-12-25T00:24:24.566Z,101353.97
2022-12-25T00:24:56.285Z,101352.97
2022-12-25T00:25:28.208Z,101356.25
2022-12-25T00:26:00.078Z,101352.16
2022-12-25T00:26:31.820Z,101357.25
2022-12-25T00:27:03.395Z,101351.97
2022-12-25T00:27:37.792Z,101354.44
2022-12-25T00:28:09.391Z,101353.00
2022-12-25T00:28:41.112Z,101352.00
2022-12-25T00:29:13.879Z,101352.00
2022-12-25T00:29:45.430Z,101354.31
2022-12-25T00:30:16.951Z,101344.72
2022-12-25T00:30:48.475Z,101343.41
2022-12-25T00:31:20.333Z,101344.72
2022-12-25T00:31:51.902Z,101339.59
2022-12-25T00:32:23.464Z,101342.72
2022-12-25T00:32:55.017Z,101338.78
2022-12-25T00:33:26.526Z,101341.09
2022-12-25T00:33:58.104Z,101336.97
2022-12-25T00:34:30.131Z,101342.41
2022-12-25T00:35:01.918Z,101343.72
2022-12-25T00:35:34.209Z,101336.31
2022-12-25T00:36:06.422Z,101335.00
2022-12-25T00:36:41.919Z,101337.81
2022-12-25T00:37:13.903Z,101341.25
2022-12-25T00:37:45.427Z,101331.72
2022-12-25T00:38:16.996Z,101332.19
2022-12-25T00:38:51.371Z,101331.22
2022-12-25T00:39:22.904Z,101339.78
2022-12-25T00:39:54.553Z,101334.19
2022-12-25T00:40:26.079Z,101332.53
2022-12-25T00:41:05.784Z,101330.38
2022-12-25T00:41:55.828Z,101326.91
2022-12-25T00:42:28.512Z,101322.94
2022-12-25T00:43:00.098Z,101330.84
2022-12-25T00:43:31.734Z,101328.88
2022-12-25T00:44:03.228Z,101334.16
2022-12-25T00:44:34.955Z,101330.53
2022-12-25T00:45:07.190Z,101333.50
2022-12-25T00:45:38.878Z,101327.41
2022-12-25T00:46:12.375Z,101328.38
2022-12-25T00:46:46.142Z,101330.56
2022-12-25T00:47:18.261Z,101320.34
2022-12-25T00:47:49.815Z,101332.84
2022-12-25T00:48:21.315Z,101321.31
2022-12-25T00:48:52.928Z,101328.72
2022-12-25T00:49:24.609Z,101325.91
2022-12-25T00:49:56.172Z,101322.66
2022-12-25T00:50:27.732Z,101322.47
2022-12-25T00:51:02.788Z,101319.19
2022-12-25T00:51:34.392Z,101318.84
2022-12-25T00:52:05.974Z,101327.59
2022-12-25T00:52:37.518Z,101326.59
2022-12-25T00:53:09.032Z,101327.56
2022-12-25T00:53:40.537Z,101322.97
2022-12-25T00:54:12.108Z,101324.94
2022-12-25T00:54:43.772Z,101328.22
2022-12-25T00:55:15.304Z,101326.94
2022-12-25T00:55:55.517Z,101324.28
2022-12-25T00:56:28.189Z,101321.31
2022-12-25T00:57:00.219Z,101320.31
2022-12-25T00:57:33.067Z,101321.31
2022-12-25T00:58:04.616Z,101317.66
2022-12-25T00:58:36.358Z,101323.44
2022-12-25T00:59:08.357Z,101318.31
2022-12-25T00:59:41.144Z,101319.59
2022-12-25T01:00:13.310Z,101316.31
2022-12-25T01:00:44.842Z,101311.38
2022-12-25T01:01:16.540Z,101319.59
2022-12-25T01:01:48.300Z,101312.34
2022-12-25T01:02:26.142Z,101319.28
2022-12-25T01:02:58.086Z,101315.94
2022-12-25T01:03:29.890Z,101305.69
2022-12-25T01:04:01.563Z,101317.09
2022-12-25T01:04:33.137Z,101310.66
2022-12-25T01:05:08.329Z,101305.56
2022-12-25T01:05:39.837Z,101308.03
2022-12-25T01:06:12.882Z,101310.34
2022-12-25T01:06:44.614Z,101305.03
2022-12-25T01:07:19.547Z,101309.50
2022-12-25T01:07:51.181Z,101319.72
2022-12-25T01:08:22.995Z,101315.91
2022-12-25T01:09:15.545Z,101318.38
2022-12-25T01:10:06.071Z,101316.56
2022-12-25T01:10:37.621Z,101323.00
2022-12-25T01:11:09.202Z,101323.84
2022-12-25T01:11:41.024Z,101320.50
2022-12-25T01:12:12.580Z,101329.72
2022-12-25T01:12:44.141Z,101322.50
2022-12-25T01:13:15.697Z,101322.63
2022-12-25T01:13:47.206Z,101320.81
2022-12-25T01:14:19.391Z,101323.78
2022-12-25T01:14:50.886Z,101330.06
2022-12-25T01:15:22.397Z,101328.44
2022-12-25T01:15:54.563Z,101335.88
2022-12-25T01:16:26.486Z,101324.44
2022-12-25T01:16:58.199Z,101326.44
2022-12-25T01:17:29.857Z,101335.19
2022-12-25T01:18:07.297Z,101335.00
2022-12-25T01:18:39.670Z,101329.06
2022-12-25T01:19:11.536Z,101319.50
2022-12-25T01:19:43.083Z,101322.75
2022-12-25T01:20:16.279Z,101325.09
2022-12-25T01:20:48.213Z,101326.25
2022-12-25T01:21:21.299Z,101324.25
2022-12-25T01:21:53.559Z,101319.59
2022-12-25T01:22:25.140Z,101331.69
2022-12-25T01:22:56.665Z,101332.38
2022-12-25T01:23:28.173Z,101336.81
2022-12-25T01:23:59.834Z,101332.72
2022-12-25T01:24:31.405Z,101337.34
2022-12-25T01:25:03.399Z,101339.00
2022-12-25T01:25:35.066Z,101343.63
2022-12-25T01:26:08.686Z,101339.16
2022-12-25T01:26:41.586Z,101334.69
2022-12-25T01:27:13.377Z,101338.47
2022-12-25T01:27:45.263Z,101340.28
2022-12-25T01:28:16.879Z,101334.97
2022-12-25T01:28:49.259Z,101338.94
2022-12-25T01:29:20.819Z,101334.34
2022-12-25T01:29:52.351Z,101339.28
2022-12-25T01:30:23.871Z,101337.81
2022-12-25T01:30:55.422Z,101332.06
2022-12-25T01:31:27.132Z,101342.59
2022-12-25T01:31:58.752Z,101345.66
2022-12-25T01:32:30.321Z,101341.56
2022-12-25T01:33:01.845Z,101348.00
2022-12-25T01:33:33.358Z,101346.19
2022-12-25T01:34:05.107Z,101340.38
2022-12-25T01:34:36.798Z,101343.19
2022-12-25T01:35:08.737Z,101343.84
2022-12-25T01:35:40.633Z,101340.84
2022-12-25T01:36:19.974Z,101344.03
2022-12-25T01:36:51.582Z,101346.50
2022-12-25T01:37:24.904Z,101350.13
2022-12-25T01:37:56.480Z,101351.44
2022-12-25T01:38:27.958Z,101356.41
2022-12-25T01:39:00.144Z,101353.78
2022-12-25T01:39:32.137Z,101359.06
2022-12-25T01:40:04.838Z,101358.88
2022-12-25T01:40:38.539Z,101358.88
2022-12-25T01:41:11.833Z,101359.03
2022-12-25T01:41:43.378Z,101353.91
2022-12-25T01:42:19.899Z,101360.00
2022-12-25T01:42:51.527Z,101355.72
2022-12-25T01:43:30.310Z,101362.50
2022-12-25T01:44:04.490Z,101356.06
2022-12-25T01:44:35.971Z,101358.06
2022-12-25T01:45:34.127Z,101360.28
2022-12-25T01:46:05.778Z,101358.94
2022-12-25T01:46:37.398Z,101354.69
2022-12-25T01:47:08.864Z,101364.75
2022-12-25T01:47:40.483Z,101362.91
2022-12-25T01:48:17.233Z,101358.66
2022-12-25T01:48:49.106Z,101363.94
2022-12-25T01:49:25.671Z,101361.66
2022-12-25T01:49:57.449Z,101364.28
2022-12-25T01:50:29.184Z,101364.28
2022-12-25T01:51:07.132Z,101357.34
2022-12-25T01:51:48.864Z,101356.66
2022-12-25T01:52:26.765Z,101359.47
2022-12-25T01:52:59.556Z,101365.28
2022-12-25T01:53:31.308Z,101352.88
2022-12-25T01:54:07.051Z,101359.00
2022-12-25T01:54:43.325Z,101358.47
2022-12-25T01:55:15.086Z,101357.16
2022-12-25T01:55:48.595Z,101359.97
2022-12-25T01:56:20.206Z,101360.97
2022-12-25T01:56:53.826Z,101359.31
2022-12-25T01:57:27.634Z,101357.28
2022-12-25T01:57:59.175Z,101355.13
2022-12-25T01:58:31.158Z,101357.91
2022-12-25T01:59:03.191Z,101355.28
2022-12-25T01:59:34.841Z,101356.94
2022-12-25T02:00:09.066Z,101355.91
2022-12-25T02:00:40.834Z,101351.44
2022-12-25T02:01:12.571Z,101351.63
2022-12-25T02:01:44.361Z,101352.81
2022-12-25T02:02:16.141Z,101352.28
2022-12-25T02:02:48.529Z,101355.09
2022-12-25T02:03:21.303Z,101350.28
2022-12-25T02:03:57.025Z,101349.81
2022-12-25T02:04:40.606Z,101348.50
2022-12-25T02:05:18.597Z,101352.97
2022-12-25T02:05:51.051Z,101350.69
2022-12-25T02:06:23.566Z,101342.75
2022-12-25T02:06:55.935Z,101340.94
2022-12-25T02:07:29.966Z,101343.81
2022-12-25T02:08:06.732Z,101339.41
2022-12-25T02:08:38.588Z,101333.41
2022-12-25T02:09:10.182Z,101342.03
2022-12-25T02:09:42.230Z,101336.75
2022-12-25T02:10:14.268Z,101337.75
2022-12-25T02:10:46.005Z,101329.28
2022-12-25T02:11:37.493Z,101331.13
2022-12-25T02:12:09.982Z,101332.41
2022-12-25T02:12:43.941Z,101331.59
2022-12-25T02:13:18.107Z,101324.06
2022-12-25T02:13:49.653Z,101330.88
2022-12-25T02:14:21.236Z,101331.00
2022-12-25T02:15:01.144Z,101328.06
2022-12-25T02:15:47.719Z,101337.25
2022-12-25T02:16:22.229Z,101327.84
2022-12-25T02:17:21.285Z,101336.25
2022-12-25T02:18:31.778Z,101334.59
2022-12-25T02:19:11.342Z,101335.53
2022-12-25T02:20:09.937Z,101339.06
2022-12-25T02:21:02.816Z,101340.75
2022-12-25T02:22:12.935Z,101341.75
2022-12-25T02:23:15.463Z,101336.81
2022-12-25T02:23:54.381Z,101350.63
2022-12-25T02:24:29.046Z,101346.00
2022-12-25T02:25:18.564Z,101341.75
2022-12-25T02:26:17.423Z,101345.41
2022-12-25T02:27:06.731Z,101344.94
2022-12-25T02:28:01.537Z,101354.34
2022-12-25T02:29:10.135Z,101354.41
2022-12-25T02:30:02.281Z,101359.63
2022-12-25T02:30:39.903Z,101355.34
2022-12-25T02:31:23.960Z,101360.34
2022-12-25T02:31:59.661Z,101352.88
2022-12-25T02:32:35.311Z,101361.63
2022-12-25T02:33:34.195Z,101351.88
2022-12-25T02:34:19.294Z,101354.59
2022-12-25T02:35:07.801Z,101352.81
2022-12-25T02:35:39.957Z,101356.28
2022-12-25T02:36:16.715Z,101348.97
2022-12-25T02:37:07.874Z,101355.22
2022-12-25T02:37:51.802Z,101352.94
2022-12-25T02:38:30.602Z,101350.31
2022-12-25T02:39:23.730Z,101353.94
2022-12-25T02:40:02.819Z,101353.59
2022-12-25T02:40:41.514Z,101354.59
2022-12-25T02:41:15.712Z,101357.88
2022-12-25T02:41:53.244Z,101351.59
2022-12-25T02:43:01.729Z,101354.94
2022-12-25T02:43:55.389Z,101355.22
2022-12-25T02:44:46.457Z,101354.69
2022-12-25T02:45:40.435Z,101353.88
2022-12-25T02:46:33.159Z,101359.72
2022-12-25T02:47:45.239Z,101352.22
2022-12-25T02:48:37.585Z,101349.69
2022-12-25T02:49:31.775Z,101347.22
2022-12-25T02:50:23.198Z,101349.22
2022-12-25T02:51:14.418Z,101333.22
2022-12-25T02:52:10.981Z,101340.16
2022-12-25T02:53:04.187Z,101339.47
2022-12-25T02:53:54.566Z,101338.84
2022-12-25T02:54:51.292Z,101339.78
2022-12-25T02:55:45.877Z,101334.91
2022-12-25T02:56:36.870Z,101338.28
2022-12-25T02:57:30.358Z,101348.03
2022-12-25T02:58:28.885Z,101345.50
2022-12-25T02:59:19.335Z,101339.91
2022-12-25T03:00:10.929Z,101333.97
2022-12-25T03:01:07.695Z,101343.56
2022-12-25T03:01:58.072Z,101338.63
2022-12-25T03:02:49.408Z,101336.53
2022-12-25T03:03:41.157Z,101343.00
2022-12-25T03:04:35.234Z,101343.19
2022-12-25T03:05:26.807Z,101339.00
2022-12-25T03:06:21.107Z,101343.00
2022-12-25T03:07:03.206Z,101339.06
2022-12-25T03:07:38.478Z,101339.91
2022-12-25T03:08:16.545Z,101336.63
2022-12-25T03:08:53.212Z,101341.19
2022-12-25T03:09:46.636Z,101333.16
2022-12-25T03:10:37.605Z,101327.75
2022-12-25T03:11:29.355Z,101321.00
2022-12-25T03:12:15.791Z,101310.88
2022-12-25T03:13:12.983Z,101320.38
2022-12-25T03:13:46.830Z,101316.63
2022-12-25T03:14:37.158Z,101316.09
2022-12-25T03:15:29.293Z,101317.84
2022-12-25T03:16:20.895Z,101307.78
2022-12-25T03:16:55.630Z,101313.81
2022-12-25T03:17:27.361Z,101305.78
2022-12-25T03:18:01.705Z,101307.31
2022-12-25T03:18:33.826Z,101306.88
2022-12-25T03:19:25.447Z,101315.00
2022-12-25T03:20:15.536Z,101311.69
2022-12-25T03:21:05.500Z,101317.34
2022-12-25T03:21:55.497Z,101316.16
2022-12-25T03:22:48.077Z,101310.50
2022-12-25T03:23:41.037Z,101307.78
2022-12-25T03:24:31.117Z,101303.69
2022-12-25T03:25:21.750Z,101302.84
2022-12-25T03:26:12.641Z,101300.56
2022-12-25T03:26:56.899Z,101295.56
2022-12-25T03:27:32.244Z,101295.56
2022-12-25T03:28:06.107Z,101295.38
2022-12-25T03:28:37.730Z,101294.78
2022-12-25T03:29:09.290Z,101292.50
2022-12-25T03:29:59.723Z,101293.63
2022-12-25T03:31:14.317Z,101290.16
2022-12-25T03:31:54.064Z,101294.13
2022-12-25T03:33:18.009Z,101285.38
2022-12-25T03:34:51.084Z,101283.25
2022-12-25T03:35:45.569Z,101278.69
2022-12-25T03:36:28.704Z,101272.66
2022-12-25T03:37:30.702Z,101283.16
2022-12-25T03:38:36.686Z,101271.03
2022-12-25T03:39:35.061Z,101274.59
2022-12-25T03:40:29.788Z,101272.63
2022-12-25T03:41:38.489Z,101268.09
2022-12-25T03:42:30.357Z,101262.22
2022-12-25T03:43:46.239Z,101265.69
2022-12-25T03:44:43.618Z,101261.41
2022-12-25T03:45:44.384Z,101266.34
2022-12-25T03:46:36.157Z,101261.41
2022-12-25T03:47:37.525Z,101264.38
2022-12-25T03:48:28.451Z,101277.25
2022-12-25T03:49:27.173Z,101274.22
2022-12-25T03:50:22.056Z,101279.16
2022-12-25T03:51:31.822Z,101271.84
2022-12-25T03:52:23.495Z,101280.16
2022-12-25T03:53:15.156Z,101274.50
2022-12-25T03:54:08.237Z,101271.47
2022-12-25T03:55:00.460Z,101281.63
2022-12-25T03:55:51.070Z,101278.41
2022-12-25T03:56:41.714Z,101280.78
2022-12-25T03:57:32.181Z,101277.97
2022-12-25T03:58:22.225Z,101281.44
2022-12-25T03:59:22.945Z,101276.13
2022-12-25T04:00:13.854Z,101277.16
2022-12-25T04:01:03.953Z,101276.31
2022-12-25T04:01:54.006Z,101271.03
2022-12-25T04:02:44.574Z,101278.41
2022-12-25T04:03:35.162Z,101275.50
2022-12-25T04:04:25.207Z,101286.00
2022-12-25T04:05:15.289Z,101277.69
2022-12-25T04:06:05.233Z,101268.38
2022-12-25T04:06:55.880Z,101277.94
2022-12-25T04:07:46.345Z,101276.03
2022-12-25T04:08:36.398Z,101271.56
2022-12-25T04:09:26.557Z,101279.31
2022-12-25T04:10:16.593Z,101277.03
2022-12-25T04:11:06.754Z,101279.25
2022-12-25T04:12:02.261Z,101290.28
2022-12-25T04:13:09.764Z,101276.97
2022-12-25T04:13:59.605Z,101285.63
2022-12-25T04:14:49.838Z,101281.34
2022-12-25T04:15:39.967Z,101279.31
2022-12-25T04:16:30.074Z,101287.28
2022-12-25T04:17:21.063Z,101292.88
2022-12-25T04:18:11.747Z,101286.28
2022-12-25T04:19:01.863Z,101285.09
2022-12-25T04:19:51.949Z,101286.91
2022-12-25T04:21:01.834Z,101283.34
2022-12-25T04:21:51.887Z,101283.19
2022-12-25T04:22:42.074Z,101283.34
2022-12-25T04:23:32.149Z,101284.16
2022-12-25T04:24:22.750Z,101277.88
2022-12-25T04:25:12.812Z,101282.06
2022-12-25T04:26:02.931Z,101280.16
2022-12-25T04:26:53.502Z,101282.25
2022-12-25T04:27:50.850Z,101278.50
2022-12-25T04:28:40.722Z,101285.63
2022-12-25T04:29:30.539Z,101284.09
2022-12-25T04:30:21.049Z,101278.97
2022-12-25T04:31:11.277Z,101276.78
2022-12-25T04:32:01.250Z,101277.16
2022-12-25T04:32:51.457Z,101273.94
2022-12-25T04:33:43.670Z,101271.13
2022-12-25T04:34:34.250Z,101278.78
2022-12-25T04:35:24.679Z,101278.88
2022-12-25T04:36:14.228Z,101274.69
2022-12-25T04:36:45.893Z,101279.53
2022-12-25T04:37:17.539Z,101278.34
2022-12-25T04:37:49.070Z,101281.16
2022-12-25T04:38:21.205Z,101283.44
2022-12-25T04:38:52.713Z,101287.19
2022-12-25T04:39:24.249Z,101282.06
2022-12-25T04:39:55.785Z,101291.22
2022-12-25T04:40:27.351Z,101296.22
2022-12-25T04:40:59.967Z,101292.31
2022-12-25T04:41:31.491Z,101288.19
2022-12-25T04:42:03.293Z,101295.31
2022-12-25T04:42:35.241Z,101295.13
2022-12-25T04:43:06.811Z,101290.56
2022-12-25T04:43:38.486Z,101299.88
2022-12-25T04:44:10.093Z,101295.22
2022-12-25T04:44:41.680Z,101294.97
2022-12-25T04:45:13.165Z,101307.09
2022-12-25T04:45:52.546Z,101299.88
2022-12-25T04:46:24.101Z,101300.81
2022-12-25T04:46:55.945Z,101303.63
2022-12-25T04:47:27.641Z,101299.81
2022-12-25T04:48:03.023Z,101309.47
2022-12-25T04:48:35.871Z,101308.47
2022-12-25T04:49:07.420Z,101306.19
2022-12-25T04:49:39.296Z,101311.66
2022-12-25T04:50:11.526Z,101308.56
2022-12-25T04:50:43.025Z,101310.38
2022-12-25T04:51:17.240Z,101311.84
2022-12-25T04:51:48.808Z,101299.59
2022-12-25T04:52:20.334Z,101312.66
2022-12-25T04:52:51.914Z,101303.81
2022-12-25T04:53:24.443Z,101307.03
2022-12-25T04:53:56.162Z,101306.13
2022-12-25T04:54:27.678Z,101306.81
2022-12-25T04:54:59.173Z,101301.06
2022-12-25T04:55:49.309Z,101307.00
2022-12-25T04:56:21.316Z,101314.31
2022-12-25T04:56:52.895Z,101307.00
2022-12-25T04:57:24.407Z,101303.06
2022-12-25T04:57:55.956Z,101303.44
2022-12-25T04:58:27.498Z,101301.63
2022-12-25T04:58:59.057Z,101304.44
2022-12-25T04:59:30.610Z,101297.97
2022-12-25T05:00:02.170Z,101297.50
2022-12-25T05:00:33.903Z,101292.66
2022-12-25T05:01:06.832Z,101300.88
2022-12-25T05:01:38.531Z,101296.50
2022-12-25T05:02:10.402Z,101297.22
2022-12-25T05:02:42.590Z,101298.88
2022-12-25T05:03:14.355Z,101301.63
2022-12-25T05:03:46.066Z,101297.31
2022-12-25T05:04:17.636Z,101296.59
2022-12-25T05:04:49.115Z,101300.88
2022-12-25T05:05:20.641Z,101293.84
2022-12-25T05:05:52.678Z,101297.59
2022-12-25T05:06:24.338Z,101298.34
2022-12-25T05:06:55.923Z,101287.38
2022-12-25T05:07:27.667Z,101291.03
2022-12-25T05:07:59.321Z,101284.72
2022-12-25T05:08:32.028Z,101283.72
2022-12-25T05:09:03.548Z,101291.94
2022-12-25T05:09:35.747Z,101285.34
2022-12-25T05:10:07.780Z,101289.84
2022-12-25T05:10:40.524Z,101280.88
2022-12-25T05:11:14.252Z,101282.16
2022-12-25T05:11:45.742Z,101283.34
2022-12-25T05:12:17.215Z,101277.78
2022-12-25T05:12:48.737Z,101279.78
2022-12-25T05:13:20.264Z,101277.88
2022-12-25T05:13:51.744Z,101284.44
2022-12-25T05:14:23.385Z,101279.16
2022-12-25T05:14:55.266Z,101279.59
2022-12-25T05:15:26.777Z,101284.09
2022-12-25T05:15:58.376Z,101282.44
2022-12-25T05:16:30.113Z,101283.44
2022-12-25T05:17:01.808Z,101277.97
2022-12-25T05:17:33.369Z,101284.91
2022-12-25T05:18:04.974Z,101284.44
2022-12-25T05:18:36.462Z,101284.16
2022-12-25T05:19:07.982Z,101285.72
2022-12-25T05:19:39.505Z,101276.97
2022-12-25T05:20:11.273Z,101286.56
2022-12-25T05:20:42.827Z,101281.53
2022-12-25T05:21:14.448Z,101285.00
2022-12-25T05:21:45.966Z,101286.38
2022-12-25T05:22:17.516Z,101276.03
2022-12-25T05:22:48.986Z,101289.47
2022-12-25T05:23:21.274Z,101288.28
2022-12-25T05:23:53.364Z,101287.47
2022-12-25T05:24:28.673Z,101280.97
2022-12-25T05:25:00.207Z,101281.34
2022-12-25T05:25:31.957Z,101275.78
2022-12-25T05:26:05.542Z,101280.44
2022-12-25T05:26:37.049Z,101273.50
2022-12-25T05:27:08.584Z,101272.50
2022-12-25T05:27:40.133Z,101273.13
2022-12-25T05:28:11.627Z,101276.31
2022-12-25T05:28:43.438Z,101273.22
2022-12-25T05:29:14.983Z,101267.66
2022-12-25T05:29:46.484Z,101272.59
2022-12-25T05:30:18.137Z,101268.75
2022-12-25T05:30:49.724Z,101259.53
2022-12-25T05:31:21.418Z,101264.44
2022-12-25T05:31:53.107Z,101262.16
2022-12-25T05:32:24.615Z,101267.97
2022-12-25T05:32:56.137Z,101263.69
2022-12-25T05:33:27.824Z,101260.72
2022-12-25T05:33:59.414Z,101266.34
2022-12-25T05:34:30.985Z,101256.13
2022-12-25T05:35:02.556Z,101270.00
2022-12-25T05:35:37.366Z,101267.66
2022-12-25T05:36:10.261Z,101261.03
2022-12-25T05:36:41.786Z,101258.13
2022-12-25T05:37:13.641Z,101255.88
2022-12-25T05:37:45.261Z,101255.75
2022-12-25T05:38:16.798Z,101256.47
2022-12-25T05:38:48.328Z,101263.88
2022-12-25T05:39:19.851Z,101254.38
2022-12-25T05:39:51.362Z,101254.75
2022-12-25T05:40:22.928Z,101255.19
2022-12-25T05:40:54.474Z,101248.81
2022-12-25T05:41:30.639Z,101253.75
2022-12-25T05:42:05.885Z,101262.31
2022-12-25T05:42:37.439Z,101251.91
2022-12-25T05:43:09.280Z,101247.53
2022-12-25T05:43:44.765Z,101248.00
2022-12-25T05:44:19.309Z,101249.34
2022-12-25T05:44:50.882Z,101244.31
2022-12-25T05:45:22.407Z,101246.94
2022-12-25T05:45:54.222Z,101247.72
2022-12-25T05:46:25.788Z,101244.13
2022-12-25T05:46:57.425Z,101238.41
2022-12-25T05:47:29.005Z,101244.97
2022-12-25T05:48:00.599Z,101242.97
2022-12-25T05:48:33.314Z,101241.69
2022-12-25T05:49:05.734Z,101240.41
2022-12-25T05:49:37.303Z,101242.94
2022-12-25T05:50:09.253Z,101244.66
2022-12-25T05:50:40.897Z,101244.19
2022-12-25T05:51:14.585Z,101239.47
2022-12-25T05:51:46.080Z,101234.91
2022-12-25T05:52:17.606Z,101236.13
2022-12-25T05:52:49.119Z,101242.78
2022-12-25T05:53:20.669Z,101239.31
2022-12-25T05:53:52.232Z,101235.72
2022-12-25T05:54:24.064Z,101235.19
2022-12-25T05:54:55.581Z,101228.47
2022-12-25T05:55:27.102Z,101231.66
2022-12-25T05:56:03.163Z,101224.91
2022-12-25T05:56:34.685Z,101232.66
2022-12-25T05:57:06.460Z,101232.19
2022-12-25T05:57:37.981Z,101228.53
2022-12-25T05:58:10.525Z,101223.44
2022-12-25T05:58:42.170Z,101223.25
2022-12-25T05:59:13.659Z,101219.56
2022-12-25T05:59:45.225Z,101230.44
2022-12-25T06:00:17.065Z,101222.66
2022-12-25T06:00:48.589Z,101230.59
2022-12-25T06:01:23.117Z,101229.59
2022-12-25T06:01:54.744Z,101222.50
2022-12-25T06:02:26.633Z,101225.59
2022-12-25T06:02:58.633Z,101221.38
2022-12-25T06:03:30.298Z,101227.88
2022-12-25T06:04:04.664Z,101225.13
2022-12-25T06:04:40.115Z,101227.03
2022-12-25T06:05:11.818Z,101226.31
2022-12-25T06:05:43.276Z,101233.25
2022-12-25T06:06:15.211Z,101234.25
2022-12-25T06:06:46.853Z,101233.97
2022-12-25T06:07:18.352Z,101231.69
2022-12-25T06:07:50.146Z,101234.91
2022-12-25T06:08:21.695Z,101235.16
2022-12-25T06:08:55.090Z,101233.06
2022-12-25T06:09:26.781Z,101238.72
2022-12-25T06:09:58.283Z,101234.34
2022-12-25T06:10:29.806Z,101230.69
2022-12-25T06:11:05.989Z,101230.34
2022-12-25T06:11:37.684Z,101237.00
2022-12-25T06:12:09.457Z,101231.06
2022-12-25T06:12:41.012Z,101241.28
2022-12-25T06:13:12.598Z,101238.72
2022-12-25T06:13:44.204Z,101236.72
2022-12-25T06:14:16.297Z,101236.13
2022-12-25T06:14:47.821Z,101229.19
2022-12-25T06:15:19.335Z,101237.75
2022-12-25T06:15:51.163Z,101230.59
2022-12-25T06:16:22.769Z,101228.78
2022-12-25T06:16:54.380Z,101230.34
2022-12-25T06:17:26.810Z,101232.41
2022-12-25T06:18:00.581Z,101232.09
2022-12-25T06:18:35.559Z,101228.50
2022-12-25T06:19:07.229Z,101228.50
2022-12-25T06:19:38.904Z,101223.47
2022-12-25T06:20:10.873Z,101226.94
2022-12-25T06:20:42.406Z,101226.47
2022-12-25T06:21:15.128Z,101222.72
2022-12-25T06:21:46.696Z,101225.88
2022-12-25T06:22:19.237Z,101221.25
2022-12-25T06:22:50.818Z,101220.06
2022-12-25T06:23:22.553Z,101224.59
2022-12-25T06:23:54.408Z,101228.78
2022-12-25T06:24:25.972Z,101226.88
2022-12-25T06:24:57.713Z,101231.19
2022-12-25T06:25:29.272Z,101227.44
2022-12-25T06:26:06.474Z,101224.97
2022-12-25T06:26:38.016Z,101233.66
2022-12-25T06:27:12.296Z,101228.19
2022-12-25T06:27:43.863Z,101233.47
2022-12-25T06:28:15.369Z,101225.66
2022-12-25T06:28:47.515Z,101231.19
2022-12-25T06:29:19.102Z,101224.72
2022-12-25T06:29:50.665Z,101229.31
2022-12-25T06:30:22.215Z,101223.03
2022-12-25T06:30:53.711Z,101221.84
2022-12-25T06:31:25.658Z,101222.03
2022-12-25T06:31:57.443Z,101224.41
2022-12-25T06:32:29.114Z,101214.19
2022-12-25T06:33:00.688Z,101215.63
2022-12-25T06:33:32.223Z,101213.06
2022-12-25T06:34:03.838Z,101211.25
2022-12-25T06:34:35.418Z,101207.78
2022-12-25T06:35:07.336Z,101209.53
2022-12-25T06:35:41.273Z,101206.59
2022-12-25T06:36:18.537Z,101206.97
2022-12-25T06:36:50.746Z,101207.88
2022-12-25T06:37:22.256Z,101200.22
2022-12-25T06:37:53.857Z,101197.31
2022-12-25T06:38:25.655Z,101200.59
2022-12-25T06:39:00.346Z,101193.38
2022-12-25T06:39:32.079Z,101199.50
2022-12-25T06:40:03.919Z,101186.53
2022-12-25T06:40:35.540Z,101191.91
2022-12-25T06:41:22.180Z,101185.34
2022-12-25T06:41:53.683Z,101187.00
2022-12-25T06:42:25.188Z,101179.06
2022-12-25T06:42:59.839Z,101183.53
2022-12-25T06:43:31.383Z,101178.22
2022-12-25T06:44:03.001Z,101187.81
2022-12-25T06:44:34.520Z,101188.22
2022-12-25T06:45:06.569Z,101196.47
2022-12-25T06:45:38.299Z,101192.66
2022-12-25T06:46:12.290Z,101187.84
2022-12-25T06:46:43.912Z,101184.06
2022-12-25T06:47:15.440Z,101186.84
2022-12-25T06:47:46.942Z,101194.78
2022-12-25T06:48:18.466Z,101202.25
2022-12-25T06:48:50.209Z,101194.03
2022-12-25T06:49:21.789Z,101191.66
2022-12-25T06:49:53.335Z,101196.59
2022-12-25T06:50:24.891Z,101195.31
2022-12-25T06:50:59.849Z,101201.44
2022-12-25T06:51:32.674Z,101208.56
2022-12-25T06:52:04.261Z,101202.63
2022-12-25T06:52:36.213Z,101205.09
2022-12-25T06:53:07.694Z,101200.53
2022-12-25T06:53:40.193Z,101205.81
2022-12-25T06:54:12.389Z,101208.81
2022-12-25T06:54:43.874Z,101204.94
2022-12-25T06:55:16.102Z,101206.44
2022-12-25T06:55:50.689Z,101207.28
2022-12-25T06:56:24.491Z,101206.81
2022-12-25T06:56:55.995Z,101199.50
2022-12-25T06:57:27.501Z,101206.81
2022-12-25T06:57:59.165Z,101206.19
2022-12-25T06:58:30.718Z,101203.63
2022-12-25T06:59:05.167Z,101210.84
2022-12-25T06:59:36.689Z,101204.53
2022-12-25T07:00:09.034Z,101213.06
2022-12-25T07:00:41.374Z,101207.09
2022-12-25T07:01:24.682Z,101211.28
2022-12-25T07:01:57.681Z,101208.09
2022-12-25T07:02:29.555Z,101200.69
2022-12-25T07:03:01.241Z,101196.22